sensor_id;sensor_type;location;lat;lon;timestamp;temperature;humidity
12746;DHT22;6437;53.686;10.030;2022-08-16T00:00:45;23.80;99.90
12746;DHT22;6437;53.686;10.030;2022-08-16T00:03:48;23.80;99.90
12746;DHT22;6437;53.686;10.030;2022-08-16T00:06:50;23.80;99.90
12746;DHT22;6437;53.686;10.030;2022-08-16T00:09:52;23.80;99.90
12746;DHT22;6437;53.686;10.030;2022-08-16T00:12:54;23.80;99.90
12746;DHT22;6437;53.686;10.030;2022-08-16T00:15:56;23.80;99.90
12746;DHT22;6437;53.686;10.030;2022-08-16T00:18:59;23.70;99.90
12746;DHT22;6437;53.686;10.030;2022-08-16T00:22:01;23.70;99.90
12746;DHT22;6437;53.686;10.030;2022-08-16T00:25:04;23.70;99.90
12746;DHT22;6437;53.686;10.030;2022-08-16T00:28:07;23.70;99.90
12746;DHT22;6437;53.686;10.030;2022-08-16T00:31:09;23.70;99.90
12746;DHT22;6437;53.686;10.030;2022-08-16T00:34:13;23.70;99.90
12746;DHT22;6437;53.686;10.030;2022-08-16T00:37:15;23.70;99.90
12746;DHT22;6437;53.686;10.030;2022-08-16T00:40:20;23.70;99.90
12746;DHT22;6437;53.686;10.030;2022-08-16T00:43:26;23.70;99.90
12746;DHT22;6437;53.686;10.030;2022-08-16T00:46:31;23.70;99.90
12746;DHT22;6437;53.686;10.030;2022-08-16T00:49:35;23.70;99.90
12746;DHT22;6437;53.686;10.030;2022-08-16T00:52:38;23.70;99.90
12746;DHT22;6437;53.686;10.030;2022-08-16T00:55:45;23.70;99.90
12746;DHT22;6437;53.686;10.030;2022-08-16T00:58:47;23.60;99.90
12746;DHT22;6437;53.686;10.030;2022-08-16T01:01:49;23.60;99.90
12746;DHT22;6437;53.686;10.030;2022-08-16T01:04:53;23.60;99.90
12746;DHT22;6437;53.686;10.030;2022-08-16T01:07:55;23.60;99.90
12746;DHT22;6437;53.686;10.030;2022-08-16T01:10:57;23.50;99.90
12746;DHT22;6437;53.686;10.030;2022-08-16T01:14:04;23.50;99.90
12746;DHT22;6437;53.686;10.030;2022-08-16T01:17:09;23.50;99.90
12746;DHT22;6437;53.686;10.030;2022-08-16T01:20:14;23.40;99.90
12746;DHT22;6437;53.686;10.030;2022-08-16T01:23:23;23.40;99.90
12746;DHT22;6437;53.686;10.030;2022-08-16T01:26:30;23.40;99.90
12746;DHT22;6437;53.686;10.030;2022-08-16T01:29:36;23.40;99.90
12746;DHT22;6437;53.686;10.030;2022-08-16T01:32:40;23.40;99.90
12746;DHT22;6437;53.686;10.030;2022-08-16T01:35:46;23.30;99.90
12746;DHT22;6437;53.686;10.030;2022-08-16T01:38:49;23.20;99.90
12746;DHT22;6437;53.686;10.030;2022-08-16T01:41:52;23.20;99.90
12746;DHT22;6437;53.686;10.030;2022-08-16T01:44:54;23.10;99.90
12746;DHT22;6437;53.686;10.030;2022-08-16T01:47:56;23.10;99.90
12746;DHT22;6437;53.686;10.030;2022-08-16T01:50:59;23.00;99.90
12746;DHT22;6437;53.686;10.030;2022-08-16T01:54:01;23.00;99.90
12746;DHT22;6437;53.686;10.030;2022-08-16T01:57:05;22.90;99.90
12746;DHT22;6437;53.686;10.030;2022-08-16T02:00:09;23.00;99.90
12746;DHT22;6437;53.686;10.030;2022-08-16T02:03:11;22.90;99.90
12746;DHT22;6437;53.686;10.030;2022-08-16T02:06:13;22.90;99.90
12746;DHT22;6437;53.686;10.030;2022-08-16T02:09:16;22.90;99.90
12746;DHT22;6437;53.686;10.030;2022-08-16T02:12:19;22.80;99.90
12746;DHT22;6437;53.686;10.030;2022-08-16T02:15:24;22.80;99.90
12746;DHT22;6437;53.686;10.030;2022-08-16T02:18:27;22.70;99.90
12746;DHT22;6437;53.686;10.030;2022-08-16T02:21:29;22.70;99.90
12746;DHT22;6437;53.686;10.030;2022-08-16T02:24:31;22.70;99.90
12746;DHT22;6437;53.686;10.030;2022-08-16T02:27:35;22.70;99.90
12746;DHT22;6437;53.686;10.030;2022-08-16T02:30:36;22.70;99.90
12746;DHT22;6437;53.686;10.030;2022-08-16T02:33:39;22.90;99.90
12746;DHT22;6437;53.686;10.030;2022-08-16T02:36:41;22.60;99.90
12746;DHT22;6437;53.686;10.030;2022-08-16T02:39:43;22.60;99.90
12746;DHT22;6437;53.686;10.030;2022-08-16T02:42:48;22.60;99.90
12746;DHT22;6437;53.686;10.030;2022-08-16T02:45:50;22.60;99.90
12746;DHT22;6437;53.686;10.030;2022-08-16T02:48:52;22.50;99.90
12746;DHT22;6437;53.686;10.030;2022-08-16T02:51:54;22.50;99.90
12746;DHT22;6437;53.686;10.030;2022-08-16T02:54:56;22.50;99.90
12746;DHT22;6437;53.686;10.030;2022-08-16T02:57:59;22.50;99.90
12746;DHT22;6437;53.686;10.030;2022-08-16T03:01:01;22.40;99.90
12746;DHT22;6437;53.686;10.030;2022-08-16T03:04:04;22.40;99.90
12746;DHT22;6437;53.686;10.030;2022-08-16T03:07:07;22.40;99.90
12746;DHT22;6437;53.686;10.030;2022-08-16T03:10:10;22.30;99.90
12746;DHT22;6437;53.686;10.030;2022-08-16T03:13:14;22.30;99.90
12746;DHT22;6437;53.686;10.030;2022-08-16T03:16:16;22.30;99.90
12746;DHT22;6437;53.686;10.030;2022-08-16T03:19:19;22.00;99.90
12746;DHT22;6437;53.686;10.030;2022-08-16T03:22:21;22.20;99.90
12746;DHT22;6437;53.686;10.030;2022-08-16T03:25:23;22.20;99.90
12746;DHT22;6437;53.686;10.030;2022-08-16T03:28:26;22.10;99.90
12746;DHT22;6437;53.686;10.030;2022-08-16T03:31:28;22.10;99.90
12746;DHT22;6437;53.686;10.030;2022-08-16T03:34:31;22.10;99.90
12746;DHT22;6437;53.686;10.030;2022-08-16T03:37:34;22.00;99.90
12746;DHT22;6437;53.686;10.030;2022-08-16T03:40:37;22.00;99.90
12746;DHT22;6437;53.686;10.030;2022-08-16T03:43:40;22.00;99.90
12746;DHT22;6437;53.686;10.030;2022-08-16T03:46:42;22.00;99.90
12746;DHT22;6437;53.686;10.030;2022-08-16T03:49:44;22.00;99.90
12746;DHT22;6437;53.686;10.030;2022-08-16T03:52:47;22.10;99.90
12746;DHT22;6437;53.686;10.030;2022-08-16T03:55:48;22.00;99.90
12746;DHT22;6437;53.686;10.030;2022-08-16T03:58:52;21.90;99.90
12746;DHT22;6437;53.686;10.030;2022-08-16T04:01:56;21.90;99.90
12746;DHT22;6437;53.686;10.030;2022-08-16T04:04:57;21.90;99.90
12746;DHT22;6437;53.686;10.030;2022-08-16T04:07:59;21.90;99.90
12746;DHT22;6437;53.686;10.030;2022-08-16T04:11:01;21.90;99.90
12746;DHT22;6437;53.686;10.030;2022-08-16T04:14:04;21.90;99.90
12746;DHT22;6437;53.686;10.030;2022-08-16T04:17:06;21.90;99.90
12746;DHT22;6437;53.686;10.030;2022-08-16T04:20:09;21.90;99.90
12746;DHT22;6437;53.686;10.030;2022-08-16T04:23:12;21.80;99.90
12746;DHT22;6437;53.686;10.030;2022-08-16T04:26:16;21.80;99.90
12746;DHT22;6437;53.686;10.030;2022-08-16T04:29:19;21.80;99.90
12746;DHT22;6437;53.686;10.030;2022-08-16T04:32:21;21.80;99.90
12746;DHT22;6437;53.686;10.030;2022-08-16T04:35:23;21.70;99.90
12746;DHT22;6437;53.686;10.030;2022-08-16T04:38:25;21.70;99.90
12746;DHT22;6437;53.686;10.030;2022-08-16T04:41:27;21.70;99.90
12746;DHT22;6437;53.686;10.030;2022-08-16T04:44:32;21.70;99.90
12746;DHT22;6437;53.686;10.030;2022-08-16T04:47:35;21.70;99.90
12746;DHT22;6437;53.686;10.030;2022-08-16T04:50:37;21.80;99.90
12746;DHT22;6437;53.686;10.030;2022-08-16T04:53:39;21.80;99.90
12746;DHT22;6437;53.686;10.030;2022-08-16T04:56:40;21.80;99.90
12746;DHT22;6437;53.686;10.030;2022-08-16T04:59:44;21.80;99.90
12746;DHT22;6437;53.686;10.030;2022-08-16T05:02:48;21.90;99.90
12746;DHT22;6437;53.686;10.030;2022-08-16T05:05:50;21.80;99.90
12746;DHT22;6437;53.686;10.030;2022-08-16T05:08:52;21.70;99.90
12746;DHT22;6437;53.686;10.030;2022-08-16T05:11:53;21.80;99.90
12746;DHT22;6437;53.686;10.030;2022-08-16T05:14:56;21.80;99.90
12746;DHT22;6437;53.686;10.030;2022-08-16T05:17:58;21.70;99.90
12746;DHT22;6437;53.686;10.030;2022-08-16T05:21:00;21.70;99.90
12746;DHT22;6437;53.686;10.030;2022-08-16T05:24:02;21.70;99.90
12746;DHT22;6437;53.686;10.030;2022-08-16T05:27:04;21.70;99.90
12746;DHT22;6437;53.686;10.030;2022-08-16T05:30:10;21.70;99.90
12746;DHT22;6437;53.686;10.030;2022-08-16T05:33:13;21.80;99.90
12746;DHT22;6437;53.686;10.030;2022-08-16T05:36:14;21.80;99.90
12746;DHT22;6437;53.686;10.030;2022-08-16T05:39:18;21.90;99.90
12746;DHT22;6437;53.686;10.030;2022-08-16T05:42:20;21.80;99.90
12746;DHT22;6437;53.686;10.030;2022-08-16T05:45:23;21.80;99.90
12746;DHT22;6437;53.686;10.030;2022-08-16T05:48:25;21.90;99.90
12746;DHT22;6437;53.686;10.030;2022-08-16T05:51:26;21.90;99.90
12746;DHT22;6437;53.686;10.030;2022-08-16T05:54:28;21.90;99.90
12746;DHT22;6437;53.686;10.030;2022-08-16T05:57:30;22.00;99.90
12746;DHT22;6437;53.686;10.030;2022-08-16T06:00:33;22.00;99.90
12746;DHT22;6437;53.686;10.030;2022-08-16T06:03:35;22.00;99.90
12746;DHT22;6437;53.686;10.030;2022-08-16T06:06:37;22.00;99.90
12746;DHT22;6437;53.686;10.030;2022-08-16T06:09:39;21.90;99.90
12746;DHT22;6437;53.686;10.030;2022-08-16T06:12:41;22.00;99.90
12746;DHT22;6437;53.686;10.030;2022-08-16T06:15:44;22.00;99.90
12746;DHT22;6437;53.686;10.030;2022-08-16T06:18:46;22.10;99.90
12746;DHT22;6437;53.686;10.030;2022-08-16T06:21:47;22.10;99.90
12746;DHT22;6437;53.686;10.030;2022-08-16T06:24:49;22.10;99.90
12746;DHT22;6437;53.686;10.030;2022-08-16T06:27:51;22.20;99.90
12746;DHT22;6437;53.686;10.030;2022-08-16T06:30:55;22.20;99.90
12746;DHT22;6437;53.686;10.030;2022-08-16T06:33:57;22.20;99.90
12746;DHT22;6437;53.686;10.030;2022-08-16T06:36:58;22.20;99.90
12746;DHT22;6437;53.686;10.030;2022-08-16T06:40:00;22.10;99.90
12746;DHT22;6437;53.686;10.030;2022-08-16T06:43:02;22.20;99.90
12746;DHT22;6437;53.686;10.030;2022-08-16T06:46:08;22.30;99.90
12746;DHT22;6437;53.686;10.030;2022-08-16T06:49:11;22.30;99.90
12746;DHT22;6437;53.686;10.030;2022-08-16T06:52:13;22.30;99.90
12746;DHT22;6437;53.686;10.030;2022-08-16T06:55:15;22.40;99.90
12746;DHT22;6437;53.686;10.030;2022-08-16T06:58:17;22.40;99.90
12746;DHT22;6437;53.686;10.030;2022-08-16T07:01:21;22.40;99.90
12746;DHT22;6437;53.686;10.030;2022-08-16T07:04:23;22.40;99.90
12746;DHT22;6437;53.686;10.030;2022-08-16T07:07:25;22.50;99.90
12746;DHT22;6437;53.686;10.030;2022-08-16T07:10:27;22.50;99.90
12746;DHT22;6437;53.686;10.030;2022-08-16T07:13:28;22.60;99.90
12746;DHT22;6437;53.686;10.030;2022-08-16T07:16:32;22.70;99.90
12746;DHT22;6437;53.686;10.030;2022-08-16T07:19:34;22.70;99.90
12746;DHT22;6437;53.686;10.030;2022-08-16T07:22:36;22.90;99.90
12746;DHT22;6437;53.686;10.030;2022-08-16T07:25:38;22.90;99.90
12746;DHT22;6437;53.686;10.030;2022-08-16T07:28:40;22.90;99.90
12746;DHT22;6437;53.686;10.030;2022-08-16T07:31:43;23.00;99.90
12746;DHT22;6437;53.686;10.030;2022-08-16T07:34:44;23.00;99.90
12746;DHT22;6437;53.686;10.030;2022-08-16T07:37:46;22.90;99.90
12746;DHT22;6437;53.686;10.030;2022-08-16T07:40:49;23.00;99.90
12746;DHT22;6437;53.686;10.030;2022-08-16T07:43:50;23.10;99.90
12746;DHT22;6437;53.686;10.030;2022-08-16T07:46:54;23.10;99.90
12746;DHT22;6437;53.686;10.030;2022-08-16T07:49:56;23.20;99.90
12746;DHT22;6437;53.686;10.030;2022-08-16T07:52:58;23.30;99.90
12746;DHT22;6437;53.686;10.030;2022-08-16T07:56:00;23.30;99.90
12746;DHT22;6437;53.686;10.030;2022-08-16T07:59:02;23.40;99.90
12746;DHT22;6437;53.686;10.030;2022-08-16T08:02:06;23.40;99.90
12746;DHT22;6437;53.686;10.030;2022-08-16T08:05:08;23.50;99.90
12746;DHT22;6437;53.686;10.030;2022-08-16T08:08:09;23.50;99.90
12746;DHT22;6437;53.686;10.030;2022-08-16T08:11:12;23.60;99.90
12746;DHT22;6437;53.686;10.030;2022-08-16T08:14:14;23.60;99.90
12746;DHT22;6437;53.686;10.030;2022-08-16T08:17:17;23.70;99.90
12746;DHT22;6437;53.686;10.030;2022-08-16T08:20:20;23.80;99.90
12746;DHT22;6437;53.686;10.030;2022-08-16T08:23:22;23.80;99.90
12746;DHT22;6437;53.686;10.030;2022-08-16T08:26:24;23.80;99.90
12746;DHT22;6437;53.686;10.030;2022-08-16T08:29:28;23.90;99.90
12746;DHT22;6437;53.686;10.030;2022-08-16T08:32:31;23.90;99.90
12746;DHT22;6437;53.686;10.030;2022-08-16T08:35:33;24.00;99.90
12746;DHT22;6437;53.686;10.030;2022-08-16T08:38:35;24.00;99.90
12746;DHT22;6437;53.686;10.030;2022-08-16T08:41:37;24.10;99.90
12746;DHT22;6437;53.686;10.030;2022-08-16T08:44:39;24.10;99.90
12746;DHT22;6437;53.686;10.030;2022-08-16T08:47:43;24.20;99.90
12746;DHT22;6437;53.686;10.030;2022-08-16T08:50:46;24.20;99.90
12746;DHT22;6437;53.686;10.030;2022-08-16T08:53:49;24.20;99.90
12746;DHT22;6437;53.686;10.030;2022-08-16T08:56:51;24.30;99.90
12746;DHT22;6437;53.686;10.030;2022-08-16T08:59:52;24.30;99.90
12746;DHT22;6437;53.686;10.030;2022-08-16T09:02:56;24.30;99.90
12746;DHT22;6437;53.686;10.030;2022-08-16T09:05:59;24.40;99.90
12746;DHT22;6437;53.686;10.030;2022-08-16T09:09:01;24.40;99.90
12746;DHT22;6437;53.686;10.030;2022-08-16T09:12:04;24.50;99.90
12746;DHT22;6437;53.686;10.030;2022-08-16T09:15:08;24.50;99.90
12746;DHT22;6437;53.686;10.030;2022-08-16T09:18:12;24.50;99.90
12746;DHT22;6437;53.686;10.030;2022-08-16T09:21:14;24.50;99.90
12746;DHT22;6437;53.686;10.030;2022-08-16T09:24:16;24.60;99.90
12746;DHT22;6437;53.686;10.030;2022-08-16T09:27:18;24.60;99.90
12746;DHT22;6437;53.686;10.030;2022-08-16T09:30:20;24.70;99.90
12746;DHT22;6437;53.686;10.030;2022-08-16T09:33:23;24.70;99.90
12746;DHT22;6437;53.686;10.030;2022-08-16T09:36:25;24.80;99.90
12746;DHT22;6437;53.686;10.030;2022-08-16T09:39:27;24.80;99.90
12746;DHT22;6437;53.686;10.030;2022-08-16T09:42:29;24.80;99.90
12746;DHT22;6437;53.686;10.030;2022-08-16T09:45:31;24.90;99.90
12746;DHT22;6437;53.686;10.030;2022-08-16T09:48:39;24.90;99.90
12746;DHT22;6437;53.686;10.030;2022-08-16T09:51:42;24.90;99.90
12746;DHT22;6437;53.686;10.030;2022-08-16T09:54:43;25.00;99.90
12746;DHT22;6437;53.686;10.030;2022-08-16T09:57:45;25.10;99.90
12746;DHT22;6437;53.686;10.030;2022-08-16T10:00:47;25.10;99.90
12746;DHT22;6437;53.686;10.030;2022-08-16T10:03:51;25.20;99.90
12746;DHT22;6437;53.686;10.030;2022-08-16T10:06:55;25.20;99.90
12746;DHT22;6437;53.686;10.030;2022-08-16T10:09:58;25.30;99.90
12746;DHT22;6437;53.686;10.030;2022-08-16T10:13:00;25.30;99.90
12746;DHT22;6437;53.686;10.030;2022-08-16T10:16:13;25.40;99.90
12746;DHT22;6437;53.686;10.030;2022-08-16T10:19:17;25.40;99.90
12746;DHT22;6437;53.686;10.030;2022-08-16T10:22:18;25.40;99.90
12746;DHT22;6437;53.686;10.030;2022-08-16T10:25:20;25.50;99.90
12746;DHT22;6437;53.686;10.030;2022-08-16T10:28:23;25.60;99.90
12746;DHT22;6437;53.686;10.030;2022-08-16T10:31:25;25.60;99.90
12746;DHT22;6437;53.686;10.030;2022-08-16T10:34:28;25.60;99.90
12746;DHT22;6437;53.686;10.030;2022-08-16T10:37:30;25.60;99.90
12746;DHT22;6437;53.686;10.030;2022-08-16T10:40:33;25.70;99.90
12746;DHT22;6437;53.686;10.030;2022-08-16T10:43:35;25.80;99.90
12746;DHT22;6437;53.686;10.030;2022-08-16T10:46:37;25.80;99.90
12746;DHT22;6437;53.686;10.030;2022-08-16T10:49:40;25.90;99.90
12746;DHT22;6437;53.686;10.030;2022-08-16T10:52:42;26.00;99.90
12746;DHT22;6437;53.686;10.030;2022-08-16T10:55:44;26.10;99.90
12746;DHT22;6437;53.686;10.030;2022-08-16T10:58:46;26.20;99.90
12746;DHT22;6437;53.686;10.030;2022-08-16T11:01:48;26.20;99.90
12746;DHT22;6437;53.686;10.030;2022-08-16T11:04:52;26.30;99.90
12746;DHT22;6437;53.686;10.030;2022-08-16T11:07:54;26.40;99.90
12746;DHT22;6437;53.686;10.030;2022-08-16T11:10:56;26.50;99.90
12746;DHT22;6437;53.686;10.030;2022-08-16T11:13:58;26.60;99.90
12746;DHT22;6437;53.686;10.030;2022-08-16T11:17:01;26.70;99.90
12746;DHT22;6437;53.686;10.030;2022-08-16T11:20:08;26.80;99.90
12746;DHT22;6437;53.686;10.030;2022-08-16T11:23:13;26.80;99.90
12746;DHT22;6437;53.686;10.030;2022-08-16T11:26:15;26.80;99.90
12746;DHT22;6437;53.686;10.030;2022-08-16T11:29:17;26.80;99.90
12746;DHT22;6437;53.686;10.030;2022-08-16T11:32:19;26.80;99.90
12746;DHT22;6437;53.686;10.030;2022-08-16T11:35:24;26.80;99.90
12746;DHT22;6437;53.686;10.030;2022-08-16T11:38:26;26.80;99.90
12746;DHT22;6437;53.686;10.030;2022-08-16T11:41:28;26.90;99.90
12746;DHT22;6437;53.686;10.030;2022-08-16T11:44:32;26.90;99.90
12746;DHT22;6437;53.686;10.030;2022-08-16T11:47:34;27.00;99.90
12746;DHT22;6437;53.686;10.030;2022-08-16T11:50:38;27.10;99.90
12746;DHT22;6437;53.686;10.030;2022-08-16T11:53:40;27.10;99.90
12746;DHT22;6437;53.686;10.030;2022-08-16T11:56:42;27.20;99.90
12746;DHT22;6437;53.686;10.030;2022-08-16T11:59:43;27.20;99.90
12746;DHT22;6437;53.686;10.030;2022-08-16T12:02:46;27.20;99.90
12746;DHT22;6437;53.686;10.030;2022-08-16T12:05:49;27.20;99.90
12746;DHT22;6437;53.686;10.030;2022-08-16T12:08:52;27.20;99.90
12746;DHT22;6437;53.686;10.030;2022-08-16T12:11:57;27.20;99.90
12746;DHT22;6437;53.686;10.030;2022-08-16T12:14:59;27.20;99.90
12746;DHT22;6437;53.686;10.030;2022-08-16T12:18:01;27.20;99.90
12746;DHT22;6437;53.686;10.030;2022-08-16T12:21:04;27.20;99.90
12746;DHT22;6437;53.686;10.030;2022-08-16T12:24:07;27.20;99.90
12746;DHT22;6437;53.686;10.030;2022-08-16T12:27:09;27.20;99.90
12746;DHT22;6437;53.686;10.030;2022-08-16T12:30:12;27.10;99.90
12746;DHT22;6437;53.686;10.030;2022-08-16T12:33:15;27.20;99.90
12746;DHT22;6437;53.686;10.030;2022-08-16T12:36:19;27.20;99.90
12746;DHT22;6437;53.686;10.030;2022-08-16T12:39:20;27.20;99.90
12746;DHT22;6437;53.686;10.030;2022-08-16T12:42:23;27.20;99.90
12746;DHT22;6437;53.686;10.030;2022-08-16T12:45:28;27.20;99.90
12746;DHT22;6437;53.686;10.030;2022-08-16T12:48:31;27.20;99.90
12746;DHT22;6437;53.686;10.030;2022-08-16T12:51:52;27.20;99.90
12746;DHT22;6437;53.686;10.030;2022-08-16T12:54:54;27.20;99.90
12746;DHT22;6437;53.686;10.030;2022-08-16T12:57:57;27.20;99.90
12746;DHT22;6437;53.686;10.030;2022-08-16T13:01:00;27.20;99.90
12746;DHT22;6437;53.686;10.030;2022-08-16T13:04:03;27.20;99.90
12746;DHT22;6437;53.686;10.030;2022-08-16T13:07:07;27.20;99.90
12746;DHT22;6437;53.686;10.030;2022-08-16T13:10:11;27.30;99.90
12746;DHT22;6437;53.686;10.030;2022-08-16T13:13:15;27.40;99.90
12746;DHT22;6437;53.686;10.030;2022-08-16T13:16:23;27.40;99.90
12746;DHT22;6437;53.686;10.030;2022-08-16T13:19:25;27.40;99.90
12746;DHT22;6437;53.686;10.030;2022-08-16T13:22:29;27.50;99.90
12746;DHT22;6437;53.686;10.030;2022-08-16T13:25:33;27.50;99.90
12746;DHT22;6437;53.686;10.030;2022-08-16T13:28:35;27.50;99.90
12746;DHT22;6437;53.686;10.030;2022-08-16T13:31:37;27.50;99.90
12746;DHT22;6437;53.686;10.030;2022-08-16T13:34:39;27.60;99.90
12746;DHT22;6437;53.686;10.030;2022-08-16T13:37:42;27.60;99.90
12746;DHT22;6437;53.686;10.030;2022-08-16T13:40:44;27.60;99.90
12746;DHT22;6437;53.686;10.030;2022-08-16T13:43:46;27.50;99.30
12746;DHT22;6437;53.686;10.030;2022-08-16T13:46:48;27.50;99.50
12746;DHT22;6437;53.686;10.030;2022-08-16T13:49:50;27.50;98.60
12746;DHT22;6437;53.686;10.030;2022-08-16T13:52:54;27.50;98.60
12746;DHT22;6437;53.686;10.030;2022-08-16T13:55:56;27.50;98.70
12746;DHT22;6437;53.686;10.030;2022-08-16T13:58:58;27.40;98.40
12746;DHT22;6437;53.686;10.030;2022-08-16T14:02:00;27.50;98.30
12746;DHT22;6437;53.686;10.030;2022-08-16T14:05:06;27.50;98.60
12746;DHT22;6437;53.686;10.030;2022-08-16T14:08:10;27.50;98.40
12746;DHT22;6437;53.686;10.030;2022-08-16T14:11:12;27.50;98.50
12746;DHT22;6437;53.686;10.030;2022-08-16T14:14:14;27.50;98.40
12746;DHT22;6437;53.686;10.030;2022-08-16T14:17:17;27.50;98.40
12746;DHT22;6437;53.686;10.030;2022-08-16T14:20:19;27.40;98.60
12746;DHT22;6437;53.686;10.030;2022-08-16T14:23:22;27.50;98.10
12746;DHT22;6437;53.686;10.030;2022-08-16T14:26:24;27.50;98.20
12746;DHT22;6437;53.686;10.030;2022-08-16T14:29:26;27.50;98.10
12746;DHT22;6437;53.686;10.030;2022-08-16T14:32:29;27.60;98.20
12746;DHT22;6437;53.686;10.030;2022-08-16T14:35:32;27.60;98.30
12746;DHT22;6437;53.686;10.030;2022-08-16T14:38:35;27.60;98.40
12746;DHT22;6437;53.686;10.030;2022-08-16T14:41:37;27.60;97.40
12746;DHT22;6437;53.686;10.030;2022-08-16T14:44:39;27.70;97.70
12746;DHT22;6437;53.686;10.030;2022-08-16T14:47:41;27.80;97.10
12746;DHT22;6437;53.686;10.030;2022-08-16T14:50:43;28.00;96.30
12746;DHT22;6437;53.686;10.030;2022-08-16T14:53:46;28.20;95.90
12746;DHT22;6437;53.686;10.030;2022-08-16T14:56:48;28.40;95.80
12746;DHT22;6437;53.686;10.030;2022-08-16T14:59:50;28.50;95.40
12746;DHT22;6437;53.686;10.030;2022-08-16T15:02:54;28.70;95.00
12746;DHT22;6437;53.686;10.030;2022-08-16T15:05:56;28.80;94.70
12746;DHT22;6437;53.686;10.030;2022-08-16T15:08:59;28.90;94.50
12746;DHT22;6437;53.686;10.030;2022-08-16T15:12:05;28.90;94.50
12746;DHT22;6437;53.686;10.030;2022-08-16T15:15:09;29.00;94.20
12746;DHT22;6437;53.686;10.030;2022-08-16T15:18:11;29.00;94.10
12746;DHT22;6437;53.686;10.030;2022-08-16T15:21:13;29.00;94.00
12746;DHT22;6437;53.686;10.030;2022-08-16T15:24:17;29.00;92.90
12746;DHT22;6437;53.686;10.030;2022-08-16T15:27:19;28.90;92.80
12746;DHT22;6437;53.686;10.030;2022-08-16T15:30:23;28.90;93.00
12746;DHT22;6437;53.686;10.030;2022-08-16T15:33:25;28.80;93.00
12746;DHT22;6437;53.686;10.030;2022-08-16T15:36:27;28.70;93.30
12746;DHT22;6437;53.686;10.030;2022-08-16T15:39:30;28.70;93.20
12746;DHT22;6437;53.686;10.030;2022-08-16T15:42:32;28.70;93.70
12746;DHT22;6437;53.686;10.030;2022-08-16T15:45:35;28.50;93.10
12746;DHT22;6437;53.686;10.030;2022-08-16T15:48:55;28.50;93.40
12746;DHT22;6437;53.686;10.030;2022-08-16T15:51:57;28.40;93.30
12746;DHT22;6437;53.686;10.030;2022-08-16T15:55:03;28.40;93.30
12746;DHT22;6437;53.686;10.030;2022-08-16T15:58:05;28.40;93.40
12746;DHT22;6437;53.686;10.030;2022-08-16T16:01:07;28.40;93.10
12746;DHT22;6437;53.686;10.030;2022-08-16T16:04:09;28.30;93.20
12746;DHT22;6437;53.686;10.030;2022-08-16T16:07:14;28.30;93.50
12746;DHT22;6437;53.686;10.030;2022-08-16T16:10:17;28.30;93.60
12746;DHT22;6437;53.686;10.030;2022-08-16T16:13:20;28.30;93.30
12746;DHT22;6437;53.686;10.030;2022-08-16T16:16:22;28.30;93.10
12746;DHT22;6437;53.686;10.030;2022-08-16T16:19:23;28.20;93.00
12746;DHT22;6437;53.686;10.030;2022-08-16T16:22:25;28.20;93.10
12746;DHT22;6437;53.686;10.030;2022-08-16T16:25:31;28.20;93.10
12746;DHT22;6437;53.686;10.030;2022-08-16T16:28:34;28.10;93.10
12746;DHT22;6437;53.686;10.030;2022-08-16T16:31:36;28.10;93.20
12746;DHT22;6437;53.686;10.030;2022-08-16T16:34:38;28.10;93.20
12746;DHT22;6437;53.686;10.030;2022-08-16T16:37:40;28.10;93.30
12746;DHT22;6437;53.686;10.030;2022-08-16T16:40:44;28.10;93.30
12746;DHT22;6437;53.686;10.030;2022-08-16T16:43:48;28.00;93.50
12746;DHT22;6437;53.686;10.030;2022-08-16T16:46:50;28.00;93.50
12746;DHT22;6437;53.686;10.030;2022-08-16T16:49:53;27.90;93.60
12746;DHT22;6437;53.686;10.030;2022-08-16T16:52:55;27.90;93.80
12746;DHT22;6437;53.686;10.030;2022-08-16T16:55:58;27.90;93.40
12746;DHT22;6437;53.686;10.030;2022-08-16T16:59:01;27.90;93.50
12746;DHT22;6437;53.686;10.030;2022-08-16T17:02:04;27.80;93.70
12746;DHT22;6437;53.686;10.030;2022-08-16T17:05:06;27.80;93.70
12746;DHT22;6437;53.686;10.030;2022-08-16T17:08:08;27.80;93.90
12746;DHT22;6437;53.686;10.030;2022-08-16T17:11:11;27.70;93.90
12746;DHT22;6437;53.686;10.030;2022-08-16T17:14:14;27.70;93.90
12746;DHT22;6437;53.686;10.030;2022-08-16T17:17:16;27.70;94.20
12746;DHT22;6437;53.686;10.030;2022-08-16T17:20:18;27.70;94.20
12746;DHT22;6437;53.686;10.030;2022-08-16T17:23:20;27.70;94.50
12746;DHT22;6437;53.686;10.030;2022-08-16T17:26:24;27.60;94.70
12746;DHT22;6437;53.686;10.030;2022-08-16T17:29:26;27.60;94.70
12746;DHT22;6437;53.686;10.030;2022-08-16T17:32:27;27.50;94.70
12746;DHT22;6437;53.686;10.030;2022-08-16T17:35:32;27.50;94.80
12746;DHT22;6437;53.686;10.030;2022-08-16T17:38:34;27.50;94.80
12746;DHT22;6437;53.686;10.030;2022-08-16T17:41:37;27.50;95.10
12746;DHT22;6437;53.686;10.030;2022-08-16T17:44:39;27.40;95.30
12746;DHT22;6437;53.686;10.030;2022-08-16T17:47:41;27.40;95.30
12746;DHT22;6437;53.686;10.030;2022-08-16T17:50:44;27.40;95.70
12746;DHT22;6437;53.686;10.030;2022-08-16T17:53:46;27.40;95.60
12746;DHT22;6437;53.686;10.030;2022-08-16T17:56:49;27.40;95.70
12746;DHT22;6437;53.686;10.030;2022-08-16T17:59:52;27.30;95.90
12746;DHT22;6437;53.686;10.030;2022-08-16T18:02:54;27.30;96.00
12746;DHT22;6437;53.686;10.030;2022-08-16T18:05:57;27.30;96.20
12746;DHT22;6437;53.686;10.030;2022-08-16T18:08:59;27.30;96.50
12746;DHT22;6437;53.686;10.030;2022-08-16T18:12:12;27.20;96.20
12746;DHT22;6437;53.686;10.030;2022-08-16T18:15:14;27.20;96.70
12746;DHT22;6437;53.686;10.030;2022-08-16T18:18:17;27.20;96.40
12746;DHT22;6437;53.686;10.030;2022-08-16T18:21:21;27.20;96.40
12746;DHT22;6437;53.686;10.030;2022-08-16T18:24:41;27.10;96.50
12746;DHT22;6437;53.686;10.030;2022-08-16T18:27:45;27.00;96.70
12746;DHT22;6437;53.686;10.030;2022-08-16T18:30:47;27.00;96.90
12746;DHT22;6437;53.686;10.030;2022-08-16T18:33:49;27.00;97.30
12746;DHT22;6437;53.686;10.030;2022-08-16T18:36:51;27.00;97.20
12746;DHT22;6437;53.686;10.030;2022-08-16T18:39:53;26.90;98.00
12746;DHT22;6437;53.686;10.030;2022-08-16T18:42:57;26.80;98.20
12746;DHT22;6437;53.686;10.030;2022-08-16T18:46:00;26.80;98.70
12746;DHT22;6437;53.686;10.030;2022-08-16T18:49:01;26.80;98.90
12746;DHT22;6437;53.686;10.030;2022-08-16T18:52:04;26.80;99.00
12746;DHT22;6437;53.686;10.030;2022-08-16T18:55:06;26.80;99.10
12746;DHT22;6437;53.686;10.030;2022-08-16T18:58:09;26.70;99.10
12746;DHT22;6437;53.686;10.030;2022-08-16T19:01:12;26.70;99.30
12746;DHT22;6437;53.686;10.030;2022-08-16T19:04:14;26.70;99.40
12746;DHT22;6437;53.686;10.030;2022-08-16T19:07:15;26.60;99.50
12746;DHT22;6437;53.686;10.030;2022-08-16T19:10:18;26.50;99.70
12746;DHT22;6437;53.686;10.030;2022-08-16T19:13:23;26.50;99.90